Relevés horaires Melle (Belgique)


Relevés horaires à Melle - Vendredi 11 Déc. 2015
Heure UTC1 Température [°C] Vent [km/h] Hum. [%] Pres.4 [hPa] Visi. [Km] Nébu. [octa] Préc.5 [mm] Cond.
2m. Res. Ros. Dir.2 Vit. Moy. Raf.3
23:00 8.1 7.4 6.7 OSO 5.6 7.4 11.1 91 1024.1(0.7/3h) -- -- -- --
22:00 8.2 7 7.1 OSO 7.4 7.4 11.1 93 1023.7(1.1/3h) -- -- -- --
21:00 8.4 8.4 7.4 OSO 3.7 11.1 24.1 93 1023.8(1.1/3h) -- -- -- --
20:00 8.7 7.6 7.6 NO 7.4 11.1 24.1 93 1023.4(0.8/3h) -- -- -- --
19:00 9.4 8.4 8.5 SO 7.4 7.4 11.1 94 1022.6(-0.4/3h) -- -- -- --
18:00 9.0 8 8.1 SO 7.4 11.1 16.7 94 1022.7(-0.7/3h) -- -- 8/12h
--
17:00 8.5 7.4 7.4 SSO 7.4 11.1 14.8 93 1022.6(-1.2/3h) -- -- -- --
16:00 8.3 6.7 7.2 SSO 9.3 9.3 16.7 93 1023(-1.4/3h) -- -- -- --
15:00 8.0 6.8 6.9 SSO 7.4 11.1 16.7 93 1023.4(-1.1/3h) -- -- -- --
14:00 8.4 7.3 7.2 SSO 7.4 11.1 14.8 92 1023.8(-1.1/3h) -- -- -- --
13:00 8.3 6.4 7.1 SO 11.1 11.1 16.7 92 1024.4(-0.3/3h) -- -- -- --
12:00 7.8 6.6 6.5 SO 7.4 14.8 29.6 91 1024.5(-0.1/3h) -- -- 2/6h
--
11:00 7.8 5.8 6.2 SO 11.1 13.0 20.4 90 1024.9(0.5/3h) -- -- -- --
10:00 7.1 5 5.7 SO 11.1 11.1 18.5 91 1024.8(0.6/3h) -- -- -- --
09:00 6.6 4.7 5.1 SO 9.3 14.8 29.6 90 1024.7(0.4/3h) -- -- -- --
08:00 6.4 4.1 4.9 SO 11.1 13.0 22.2 90 1024.5(0.3/3h) -- -- -- --
07:00 5.9 3.2 4.5 SSO 13.0 14.8 29.6 91 1024.2(-0.4/3h) -- -- -- --
06:00 5.7 2.9 4.3 SSO 13.0 13.0 20.4 91 1024.3(-1.0/3h) -- -- 6/12h
--
05:00 5.6 3.2 4.1 SSO 11.1 13.0 18.5 90 1024.2(-1.2/3h) -- -- -- --
04:00 5.4 2.6 3.9 SSO 13.0 13.0 18.5 90 1024.6(-1.0/3h) -- -- -- --
03:00 5.3 3.2 3.6 SSO 9.3 13.0 20.4 89 1025.3(-0.7/3h) -- -- -- --
02:00 5.4 2.9 3.3 SSO 11.1 13.0 18.5 86 1025.4(-1.1/3h) -- -- -- --
01:00 5.3 2.8 2.9 SSO 11.1 13.0 20.4 84 1025.6(-1.3/3h) -- -- -- --
00:00 5.1 2.6 2.6 SSO 11.1 14.8 20.4 84 1026(-1.4/3h) -- -- 0/0h
0/6h
--

1 Coordinated Universal Time. Actuellement il est 18:00 locale et 16:00 UTC.

2 Le vent souffle depuis la direction indiquée vers la direction oposée.

3 Les rafales max. sont disponible 40 min après l'heure du relevé.

4 Pour les stations d'altitude (plus de 600m) le géopotentiel du niveau le plus proche de la pression obligatoire est indiqué.

5 Les stations disposant d'un diffuseur peuvent indiquer "trace". Cela signifie que des précipitations ont touchés le sol mais que la quantité est inférieure à 0.1 mm.

Récapitulatif de la journée
Température [°C] Vent [km/h] Ensoleillement4 [h] Precipitations totale5 [mm] Pression [Hpa]
Min1 Max.2 Moy.3 Max. Min Max.
4.1 9.0 11.8 29.6 0 h 0 min 0 1022.6 1026.0

1 Température minimale relevée entre 18:00 UTC la veille et 18:00 UTC le jour donné.

2 Température maximale relevée entre 06:00 UTC le jour donné et 06:00 UTC le lendemain.

3 Vent moyen de la journée basé sur les relevés horaires.

4 Ensoleillement en heures relevé entre 06:00 UTC la veille et 06:00 UTC le jour donné.

5 Précipitations totales tombées entre 06:00 UTC la jour donné et 06:00 UTC le lendemain.

Graphiques horaires